Details From UAII - Shymkent
To UACC - Astana Intl
Flight Number -
Tags Generated
Created
Modified
Stats Distance 526 nm / 973 km
Max Altitude 0 ft / 0 m
Waypoints 3
Social Downloads 5
Likes 0
Share VATSIM

Download

Looking for another format? Having issues loading an existing format? Contact us
Advertisement - Login to hide

Notes

Generated

Route

UAII AST UACC

ID Type Via Altitude Latitude Longitude Leg Dist Tot Dist Heading (true) Name
O UAII APT - 0 ft / 0 m 42.36776˚ 69.46280˚ - 0 nm - -
AST VOR - 0 ft / 0 m 51.00111˚ 71.43417˚ 524 nm 524 nm 8° / 10° ASTANA VOR-DME
O UACC APT - 0 ft / 0 m 51.01097˚ 71.44957˚ 0 nm 525 nm 45° / 45° -

Altitude Profile

Advertisement - Login to hide

Weather


0- 5 10 15 20 25 30 35+ Temperature / ° C

Clouds and Precipitation
Forecast for 2017-12-13 06:00 UTC. Updated 28 minutes ago

Ground ~20,000 ft ~40,000 ft Winds

UAII

Details ICAO UAII (CIT)
Name SHYMKENT
Region Kazakhstan and Kyrgyzstan
Timezone Asia/Almaty (UTC+6.0)
Stats Elevation 1,385 ft / 422 m (AMSL)
Location 42.364236° 69.479116°
Runways 1
Magnetic Variation 5.826° E

METAR

UAII 130330Z VRB01MPS 1500 BR BKN004 OVC022 M04/M05 Q1029 R28/0///70 NOSIG RMK QBB140 QFE734/0979

Decode

TAF

TAF UAII 122300Z 1300/1324 04004MPS 2000 BR BKN006 OVC020 TX00/1309Z TNM09/1302Z TEMPO 1300/1306 VRB02MPS 0300 -SN FZFG OVC002 BECMG 1306/1307 36005MPS 5000 SCT010 BKN100 TEMPO 1313/1324 VRB02MPS 0500 FZFG VV002

Decode

Departure Runways

ID Width Length Bearing (true) Bearing (mag) Surface Threshold Offset Overrun Length
10 144 ft / 44 m 9,167 ft / 2,794 m 106.29° 100.46° Concrete 0 ft / 0 m 0 ft / 0 m
28 144 ft / 44 m 9,167 ft / 2,794 m 286.31° 280.48° Concrete 0 ft / 0 m 0 ft / 0 m

UACC

Details ICAO UACC (TSE)
Name Astana INTL
Region Kazakhstan and Kyrgyzstan
Timezone Asia/Almaty (UTC+6.0)
Stats Elevation 1,165 ft / 355 m (AMSL)
Location 51.022180° 71.467062°
Runways 1
Magnetic Variation 9.843° E

METAR

UACC 130330Z 09001MPS 0250 R04/0250N FZFG VV001 M27/M30 Q1040 R04/8///60 TEMPO 0200 FZFG VV001 RMK QBB050 QFE748/0997

Decode

TAF

TAF UACC 122300Z 1300/1324 08005MPS 0700 FZFG VV002 TXM16/1309Z TNM28/1302Z TEMPO 1300/1305 VRB02MPS 0200 FZFG VV001 BECMG 1305/1307 10005MPS 9999 NSW SCT007 TEMPO 1313/1324 3000 IC BR SCT005

Decode

Destination Runways

ID Width Length Bearing (true) Bearing (mag) Surface Threshold Offset Overrun Length
04 148 ft / 45 m 11,467 ft / 3,495 m 44.45° 34.61° Asphalt 0 ft / 0 m 0 ft / 0 m
22 148 ft / 45 m 11,467 ft / 3,495 m 224.48° 214.64° Asphalt 0 ft / 0 m 0 ft / 0 m

Approach Navaids

Runway Type Ident Frequency Range Bearing (true) Bearing (mag) Slope Elevation
04 Localiser IMO 109.50 MHz 18 nm / 33 km 44.29° 34.45° - 1,165 ft / 355 m (AMSL)
04 Glidescope IMO 109.50 MHz 10 nm / 19 km 44.46° 34.62° 3.00° 1,165 ft / 355 m (AMSL)
22 Localiser IAK 111.70 MHz 18 nm / 33 km 224.56° 214.72° - 1,165 ft / 355 m (AMSL)
22 Glidescope IAK 111.70 MHz 10 nm / 19 km 224.46° 214.62° 3.00° 1,165 ft / 355 m (AMSL)

Popular Alternatives